^^
Your Local Weather - Clay, NY Station Historical Data
Daily Summary for August 14, 2017 Units:  English    Metric   Both
« Previous Day
Next Day »
Daily Weekly Monthly Yearly Custom
  High: Low: Average:
Temperature: 80.4 °F 54.3 °F 67 °F
Dew Point: 62.3 °F 52.0 °F 56.7 °F
Humidity: 94% 45% 72%
Wind Speed: 3.0mph 0.0mph 0.9mph
Wind Gust: 7.0mph - -
Wind- - ESE
Pressure: 30.02 in 29.83 in -
Precipitation: 0.00 in    
Historical Graphs
 
 
Tabular Data for August 14, 2017
Time Temperature Dew Point Pressure Wind Wind Speed Wind Gust Humidity Rainfall Rate (Hourly) solar
00:00 57.0 °F 54.1 °F 29.99 in Calm     90% 0.00 in 0 W/m2
00:06 56.9 °F 54.0 °F 29.99 in Calm     90% 0.00 in 0 W/m2
00:12 56.8 °F 53.9 °F 29.99 in Calm     90% 0.00 in 0 W/m2
00:18 56.7 °F 53.8 °F 29.99 in Calm     90% 0.00 in 0 W/m2
00:24 56.5 °F 53.6 °F 29.99 in Calm     90% 0.00 in 0 W/m2
00:30 56.4 °F 53.5 °F 29.99 in Calm     90% 0.00 in 0 W/m2
00:36 56.3 °F 53.7 °F 29.99 in Calm     91% 0.00 in 0 W/m2
00:42 56.4 °F 53.8 °F 29.99 in Calm     91% 0.00 in 0 W/m2
00:48 56.4 °F 53.8 °F 29.99 in Calm     91% 0.00 in 0 W/m2
00:54 56.1 °F 53.5 °F 29.99 in Calm     91% 0.00 in 0 W/m2
01:00 55.9 °F 53.3 °F 29.99 in Calm     91% 0.00 in 0 W/m2
01:06 55.8 °F 53.2 °F 29.99 in Calm     91% 0.00 in 0 W/m2
01:12 55.7 °F 53.1 °F 29.99 in Calm     91% 0.00 in 0 W/m2
01:18 55.5 °F 52.9 °F 29.99 in Calm     91% 0.00 in 0 W/m2
01:24 55.4 °F 52.8 °F 29.99 in Calm     91% 0.00 in 0 W/m2
01:30 55.3 °F 52.7 °F 29.99 in Calm     91% 0.00 in 0 W/m2
01:36 55.2 °F 52.6 °F 29.99 in Calm     91% 0.00 in 0 W/m2
01:40 55.1 °F 52.5 °F 29.99 in Calm     91% 0.00 in 0 W/m2
01:46 54.9 °F 52.3 °F 29.99 in Calm     91% 0.00 in 0 W/m2
01:52 54.7 °F 52.4 °F 29.99 in Calm     92% 0.00 in 0 W/m2
01:58 54.6 °F 52.3 °F 29.99 in Calm     92% 0.00 in 0 W/m2
02:04 54.6 °F 52.3 °F 29.99 in Calm     92% 0.00 in 0 W/m2
02:10 54.6 °F 52.3 °F 29.99 in Calm     92% 0.00 in 0 W/m2
02:16 54.5 °F 52.2 °F 29.99 in Calm     92% 0.00 in 0 W/m2
02:22 54.4 °F 52.1 °F 29.99 in Calm     92% 0.00 in 0 W/m2
02:28 54.3 °F 52.0 °F 29.99 in Calm     92% 0.00 in 0 W/m2
02:34 54.4 °F 52.1 °F 29.99 in Calm     92% 0.00 in 0 W/m2
02:40 54.6 °F 52.3 °F 29.99 in Calm     92% 0.00 in 0 W/m2
02:46 54.9 °F 52.9 °F 29.99 in Calm     93% 0.00 in 0 W/m2
02:52 55.0 °F 53.0 °F 29.99 in Calm     93% 0.00 in 0 W/m2
02:58 55.2 °F 53.2 °F 29.99 in Calm     93% 0.00 in 0 W/m2
03:04 55.4 °F 53.4 °F 29.99 in Calm     93% 0.00 in 0 W/m2
03:10 55.5 °F 53.5 °F 29.99 in Calm     93% 0.00 in 0 W/m2
03:16 55.5 °F 53.5 °F 29.99 in Calm     93% 0.00 in 0 W/m2
03:22 55.5 °F 53.5 °F 29.99 in Calm     93% 0.00 in 0 W/m2
03:28 55.5 °F 53.5 °F 29.99 in Calm     93% 0.00 in 0 W/m2
03:34 55.5 °F 53.5 °F 29.99 in Calm     93% 0.00 in 0 W/m2
03:40 55.4 °F 53.4 °F 29.99 in Calm     93% 0.00 in 0 W/m2
03:46 55.2 °F 53.2 °F 29.99 in Calm     93% 0.00 in 0 W/m2
03:52 55.2 °F 53.2 °F 29.99 in Calm     93% 0.00 in 0 W/m2
03:58 55.3 °F 53.3 °F 29.99 in Calm     93% 0.00 in 0 W/m2
04:04 55.3 °F 53.3 °F 30.00 in Calm     93% 0.00 in 0 W/m2
04:10 55.2 °F 53.2 °F 30.00 in Calm     93% 0.00 in 0 W/m2
04:16 55.2 °F 53.2 °F 30.00 in Calm     93% 0.00 in 0 W/m2
04:22 55.1 °F 53.1 °F 30.00 in Calm     93% 0.00 in 0 W/m2
04:28 55.1 °F 53.1 °F 30.00 in Calm     93% 0.00 in 0 W/m2
04:34 55.0 °F 53.0 °F 30.00 in Calm     93% 0.00 in 0 W/m2
04:40 54.9 °F 52.9 °F 30.00 in Calm     93% 0.00 in 0 W/m2
04:46 54.9 °F 52.9 °F 30.00 in Calm     93% 0.00 in 0 W/m2
04:52 54.8 °F 52.8 °F 30.00 in Calm     93% 0.00 in 0 W/m2
04:58 54.7 °F 52.7 °F 30.00 in Calm     93% 0.00 in 0 W/m2
05:04 54.6 °F 52.6 °F 30.00 in Calm     93% 0.00 in 0 W/m2
05:10 54.6 °F 52.6 °F 30.00 in Calm     93% 0.00 in 0 W/m2
05:16 54.6 °F 52.6 °F 30.01 in Calm     93% 0.00 in 0 W/m2
05:22 54.5 °F 52.5 °F 30.01 in Calm     93% 0.00 in 0 W/m2
05:28 54.6 °F 52.6 °F 30.01 in Calm     93% 0.00 in 0 W/m2
05:34 54.6 °F 52.6 °F 30.01 in Calm     93% 0.00 in 0 W/m2
05:40 54.7 °F 52.7 °F 30.01 in Calm     93% 0.00 in 0 W/m2
05:46 54.7 °F 52.7 °F 30.01 in Calm     93% 0.00 in 0 W/m2
05:52 54.8 °F 52.8 °F 30.01 in Calm     93% 0.00 in 0 W/m2
05:58 54.8 °F 52.8 °F 30.01 in Calm     93% 0.00 in 0 W/m2
06:04 54.9 °F 52.9 °F 30.01 in Calm     93% 0.00 in 0 W/m2
06:10 54.9 °F 52.9 °F 30.01 in Calm     93% 0.00 in 0 W/m2
06:16 55.0 °F 53.0 °F 30.01 in Calm     93% 0.00 in 0 W/m2
06:22 55.0 °F 53.0 °F 30.01 in Calm     93% 0.00 in 9 W/m2
06:28 55.0 °F 53.0 °F 30.01 in Calm     93% 0.00 in 11 W/m2
06:34 55.1 °F 53.1 °F 30.01 in Calm     93% 0.00 in 16 W/m2
06:40 55.2 °F 53.5 °F 30.01 in Calm     94% 0.00 in 19 W/m2
06:46 55.1 °F 53.4 °F 30.01 in Calm     94% 0.00 in 25 W/m2
06:52 55.3 °F 53.6 °F 30.01 in Calm     94% 0.00 in 32 W/m2
06:58 55.5 °F 53.8 °F 30.01 in Calm     94% 0.00 in 37 W/m2
07:04 55.7 °F 53.7 °F 30.01 in Calm     93% 0.00 in 44 W/m2
07:10 55.9 °F 54.2 °F 30.01 in Calm     94% 0.00 in 51 W/m2
07:16 56.1 °F 54.1 °F 30.02 in Calm     93% 0.00 in 56 W/m2
07:22 56.3 °F 54.3 °F 30.02 in Calm     93% 0.00 in 65 W/m2
07:28 56.6 °F 54.6 °F 30.02 in Calm   1.0 mph 93% 0.00 in 72 W/m2
07:34 56.8 °F 54.8 °F 30.02 in Calm     93% 0.00 in 83 W/m2
07:40 57.1 °F 55.1 °F 30.02 in Calm     93% 0.00 in 95 W/m2
07:46 57.3 °F 55.0 °F 30.02 in Calm   1.0 mph 92% 0.00 in 118 W/m2
07:52 57.9 °F 55.6 °F 30.02 in Calm     92% 0.00 in 139 W/m2
07:58 58.6 °F 56.0 °F 30.01 in Calm     91% 0.00 in 176 W/m2
08:04 59.1 °F 56.2 °F 30.01 in Calm     90% 0.00 in 132 W/m2
08:10 59.3 °F 55.4 °F 30.01 in Calm     87% 0.00 in 125 W/m2
08:16 59.7 °F 55.5 °F 30.01 in Calm   1.0 mph 86% 0.00 in 127 W/m2
08:22 60.1 °F 55.6 °F 30.00 in Calm   1.0 mph 85% 0.00 in 142 W/m2
08:28 60.8 °F 56.3 °F 30.00 in NNW 1.0 mph 2.0 mph 85% 0.00 in 197 W/m2
08:34 61.5 °F 56.3 °F 30.00 in ENE 1.0 mph 1.0 mph 83% 0.00 in 167 W/m2
08:40 61.8 °F 55.9 °F 30.00 in SSE 1.0 mph 3.0 mph 81% 0.00 in 181 W/m2
08:46 62.1 °F 55.5 °F 30.00 in SE 1.0 mph 3.0 mph 79% 0.00 in 292 W/m2
08:52 62.7 °F 56.4 °F 30.00 in Calm   3.0 mph 80% 0.00 in 209 W/m2
08:58 63.2 °F 56.2 °F 30.00 in SE 1.0 mph 3.0 mph 78% 0.00 in 211 W/m2
09:04 63.6 °F 55.9 °F 30.00 in SE 1.0 mph 2.0 mph 76% 0.00 in 381 W/m2
09:10 64.0 °F 55.5 °F 30.00 in SE 1.0 mph 2.0 mph 74% 0.00 in 394 W/m2
09:16 64.6 °F 56.1 °F 30.00 in East 1.0 mph 2.0 mph 74% 0.00 in 387 W/m2
09:22 65.2 °F 56.3 °F 30.00 in East 1.0 mph 3.0 mph 73% 0.00 in 454 W/m2
09:28 65.7 °F 55.6 °F 30.00 in ENE 1.0 mph 5.0 mph 70% 0.00 in 366 W/m2
09:34 66.2 °F 56.5 °F 30.00 in ENE 1.0 mph 1.0 mph 71% 0.00 in 615 W/m2
09:40 66.6 °F 56.1 °F 30.00 in ENE 1.0 mph 1.0 mph 69% 0.00 in 251 W/m2
09:46 66.8 °F 56.7 °F 30.00 in ENE 1.0 mph 1.0 mph 70% 0.00 in 301 W/m2
09:52 67.9 °F 57.8 °F 29.99 in Calm   1.0 mph 70% 0.00 in 663 W/m2
09:58 68.1 °F 56.7 °F 29.99 in SE 1.0 mph 5.0 mph 67% 0.00 in 499 W/m2
10:04 68.4 °F 57.0 °F 29.99 in SSE 2.0 mph 3.0 mph 67% 0.00 in 749 W/m2
10:10 69.5 °F 59.7 °F 29.99 in SSE 2.0 mph 6.0 mph 71% 0.00 in 879 W/m2
10:16 70.4 °F 58.5 °F 29.99 in ENE 2.0 mph 6.0 mph 66% 0.00 in 896 W/m2
10:22 71.4 °F 57.7 °F 29.99 in NNE 2.0 mph 3.0 mph 62% 0.00 in 700 W/m2
10:28 71.4 °F 58.1 °F 29.99 in NE 1.0 mph 3.0 mph 63% 0.00 in 250 W/m2
10:34 70.7 °F 57.0 °F 29.99 in Calm   1.0 mph 62% 0.00 in 508 W/m2
10:40 71.8 °F 57.2 °F 29.99 in NE 1.0 mph 2.0 mph 60% 0.00 in 779 W/m2
10:46 72.0 °F 56.9 °F 29.98 in ENE 1.0 mph 4.0 mph 59% 0.00 in 817 W/m2
10:52 72.6 °F 57.0 °F 29.98 in SE 1.0 mph 1.0 mph 58% 0.00 in 773 W/m2
10:58 73.5 °F 60.1 °F 29.98 in East 2.0 mph 2.0 mph 63% 0.00 in 784 W/m2
11:04 74.0 °F 58.3 °F 29.98 in SSE 2.0 mph 4.0 mph 58% 0.00 in 821 W/m2
11:10 74.6 °F 58.4 °F 29.98 in SE 1.0 mph 1.0 mph 57% 0.00 in 775 W/m2
11:16 74.3 °F 57.1 °F 29.97 in South 2.0 mph 4.0 mph 55% 0.00 in 795 W/m2
11:22 74.4 °F 56.7 °F 29.97 in South 3.0 mph 6.0 mph 54% 0.00 in 809 W/m2
11:28 75.0 °F 57.2 °F 29.97 in SSE 3.0 mph 6.0 mph 54% 0.00 in 833 W/m2
11:34 74.8 °F 57.0 °F 29.97 in SSE 3.0 mph 4.0 mph 54% 0.00 in 838 W/m2
11:40 75.5 °F 55.6 °F 29.97 in ENE 2.0 mph 2.0 mph 50% 0.00 in 854 W/m2
11:46 74.9 °F 57.6 °F 29.96 in SSE 3.0 mph 6.0 mph 55% 0.00 in 861 W/m2
11:52 75.8 °F 59.0 °F 29.96 in ESE 2.0 mph 3.0 mph 56% 0.00 in 868 W/m2
11:58 76.1 °F 57.7 °F 29.96 in SSE 1.0 mph 3.0 mph 53% 0.00 in 874 W/m2
12:04 75.9 °F 57.5 °F 29.96 in SSE 2.0 mph 2.0 mph 53% 0.00 in 875 W/m2
12:10 76.2 °F 55.1 °F 29.97 in SSE 3.0 mph 3.0 mph 48% 0.00 in 877 W/m2
12:16 76.4 °F 57.5 °F 29.96 in ESE 2.0 mph 4.0 mph 52% 0.00 in 879 W/m2
12:22 76.9 °F 59.5 °F 29.96 in SE 2.0 mph 2.0 mph 55% 0.00 in 877 W/m2
12:28 76.6 °F 55.4 °F 29.96 in SE 2.0 mph 4.0 mph 48% 0.00 in 886 W/m2
12:34 77.1 °F 57.0 °F 29.96 in SE 2.0 mph 4.0 mph 50% 0.00 in 898 W/m2
12:40 76.9 °F 55.1 °F 29.96 in SSE 3.0 mph 3.0 mph 47% 0.00 in 916 W/m2
12:42 77.3 °F 56.6 °F 29.96 in SSE 2.0 mph 3.0 mph 49% 0.00 in 905 W/m2
12:48 77.3 °F 56.1 °F 29.95 in SSE 1.0 mph 3.0 mph 48% 0.00 in 1002 W/m2
12:54 76.7 °F 57.2 °F 29.95 in SSE 2.0 mph 5.0 mph 51% 0.00 in 937 W/m2
13:00 76.5 °F 58.1 °F 29.95 in NE 2.0 mph 3.0 mph 53% 0.00 in 165 W/m2
13:06 75.6 °F 56.2 °F 29.95 in ENE 1.0 mph 3.0 mph 51% 0.00 in 193 W/m2
13:12 75.6 °F 59.3 °F 29.95 in ESE 1.0 mph 1.0 mph 57% 0.00 in 1037 W/m2
13:18 77.3 °F 59.9 °F 29.95 in ESE 1.0 mph 2.0 mph 55% 0.00 in 1035 W/m2
13:24 77.0 °F 59.1 °F 29.95 in SSE 1.0 mph 2.0 mph 54% 0.00 in 332 W/m2
13:30 77.1 °F 57.0 °F 29.94 in ENE 1.0 mph 1.0 mph 50% 0.00 in 234 W/m2
13:36 77.5 °F 57.4 °F 29.94 in East 1.0 mph 2.0 mph 50% 0.00 in 1027 W/m2
13:42 78.3 °F 60.8 °F 29.94 in East 2.0 mph 5.0 mph 55% 0.00 in 1053 W/m2
13:46 78.2 °F 60.2 °F 29.94 in SE 2.0 mph 5.0 mph 54% 0.00 in 211 W/m2
13:52 77.8 °F 59.8 °F 29.93 in SE 1.0 mph 1.0 mph 54% 0.00 in 1058 W/m2
13:58 78.5 °F 61.5 °F 29.93 in SSE 1.0 mph 6.0 mph 56% 0.00 in 1039 W/m2
14:04 79.1 °F 60.5 °F 29.93 in SSE 2.0 mph 5.0 mph 53% 0.00 in 854 W/m2
14:10 79.9 °F 60.7 °F 29.93 in SE 2.0 mph 3.0 mph 52% 0.00 in 1014 W/m2
14:16 79.4 °F 56.2 °F 29.93 in ENE 2.0 mph 4.0 mph 45% 0.00 in 227 W/m2
14:22 78.3 °F 57.0 °F 29.92 in South 2.0 mph 2.0 mph 48% 0.00 in 246 W/m2
14:28 78.7 °F 59.6 °F 29.92 in South 1.0 mph 2.0 mph 52% 0.00 in 1027 W/m2
14:34 80.4 °F 58.9 °F 29.92 in NNW 1.0 mph 3.0 mph 48% 0.00 in 1014 W/m2
14:40 80.1 °F 58.6 °F 29.92 in NNW 1.0 mph 1.0 mph 48% 0.00 in 297 W/m2
14:46 77.8 °F 60.3 °F 29.92 in East 1.0 mph 2.0 mph 55% 0.00 in 285 W/m2
14:52 78.3 °F 60.8 °F 29.92 in East 1.0 mph 2.0 mph 55% 0.00 in 459 W/m2
14:58 79.4 °F 61.8 °F 29.91 in East 1.0 mph 3.0 mph 55% 0.00 in 638 W/m2
15:04 78.7 °F 61.7 °F 29.91 in East 2.0 mph 7.0 mph 56% 0.00 in 907 W/m2
15:10 78.8 °F 61.3 °F 29.91 in NW 3.0 mph 4.0 mph 55% 0.00 in 916 W/m2
15:16 79.2 °F 61.1 °F 29.91 in NE 3.0 mph 4.0 mph 54% 0.00 in 886 W/m2
15:22 80.1 °F 60.9 °F 29.90 in NNE 3.0 mph 4.0 mph 52% 0.00 in 831 W/m2
15:28 78.4 °F 58.8 °F 29.90 in ENE 3.0 mph 4.0 mph 51% 0.00 in 816 W/m2
15:34 78.1 °F 60.6 °F 29.90 in NE 2.0 mph 3.0 mph 55% 0.00 in 216 W/m2
15:40 78.7 °F 60.1 °F 29.90 in ENE 2.0 mph 2.0 mph 53% 0.00 in 188 W/m2
15:46 78.4 °F 60.4 °F 29.90 in North 2.0 mph 6.0 mph 54% 0.00 in 285 W/m2
15:52 78.6 °F 60.6 °F 29.90 in North 1.0 mph 2.0 mph 54% 0.00 in 854 W/m2
15:58 78.8 °F 61.3 °F 29.90 in NE 2.0 mph 4.0 mph 55% 0.00 in 826 W/m2
16:04 79.9 °F 60.2 °F 29.89 in ENE 2.0 mph 4.0 mph 51% 0.00 in 795 W/m2
16:10 78.6 °F 60.6 °F 29.89 in ENE 2.0 mph 2.0 mph 54% 0.00 in 360 W/m2
16:16 79.9 °F 62.3 °F 29.89 in NE 1.0 mph 3.0 mph 55% 0.00 in 759 W/m2
16:22 79.1 °F 61.0 °F 29.88 in East 2.0 mph 5.0 mph 54% 0.00 in 694 W/m2
16:28 79.2 °F 60.1 °F 29.88 in East 2.0 mph 5.0 mph 52% 0.00 in 701 W/m2
16:34 79.2 °F 59.5 °F 29.88 in NNE 3.0 mph 4.0 mph 51% 0.00 in 715 W/m2
16:40 78.9 °F 60.3 °F 29.88 in East 3.0 mph 3.0 mph 53% 0.00 in 657 W/m2
16:46 79.0 °F 61.5 °F 29.88 in ENE 3.0 mph 7.0 mph 55% 0.00 in 591 W/m2
16:52 78.2 °F 61.2 °F 29.88 in East 3.0 mph 4.0 mph 56% 0.00 in 183 W/m2
16:58 77.9 °F 60.9 °F 29.87 in ENE 2.0 mph 4.0 mph 56% 0.00 in 176 W/m2
17:04 78.0 °F 60.5 °F 29.87 in NE 2.0 mph 3.0 mph 55% 0.00 in 260 W/m2
17:10 78.3 °F 62.3 °F 29.87 in East 2.0 mph 3.0 mph 58% 0.00 in 118 W/m2
17:16 78.4 °F 60.9 °F 29.87 in NNE 2.0 mph 5.0 mph 55% 0.00 in 257 W/m2
17:22 78.3 °F 60.3 °F 29.87 in NE 3.0 mph 3.0 mph 54% 0.00 in 141 W/m2
17:28 78.0 °F 60.5 °F 29.87 in ENE 2.0 mph 3.0 mph 55% 0.00 in 84 W/m2
17:34 78.0 °F 60.5 °F 29.87 in ENE 1.0 mph 2.0 mph 55% 0.00 in 83 W/m2
17:40 78.2 °F 60.7 °F 29.85 in ENE 1.0 mph 2.0 mph 55% 0.00 in 98 W/m2
17:46 78.6 °F 61.6 °F 29.85 in ENE 1.0 mph 2.0 mph 56% 0.00 in 121 W/m2
17:52 78.6 °F 60.6 °F 29.85 in NNE 1.0 mph 2.0 mph 54% 0.00 in 102 W/m2
17:58 78.6 °F 60.0 °F 29.85 in NNE 1.0 mph 2.0 mph 53% 0.00 in 76 W/m2
18:04 78.6 °F 60.0 °F 29.85 in Calm   1.0 mph 53% 0.00 in 76 W/m2
18:10 78.7 °F 59.0 °F 29.84 in SE 1.0 mph 4.0 mph 51% 0.00 in 74 W/m2
18:16 78.9 °F 57.0 °F 29.84 in South 3.0 mph 4.0 mph 47% 0.00 in 93 W/m2
18:22 79.1 °F 56.5 °F 29.84 in South 3.0 mph 3.0 mph 46% 0.00 in 81 W/m2
18:28 79.1 °F 57.1 °F 29.84 in SSE 3.0 mph 5.0 mph 47% 0.00 in 56 W/m2
18:34 78.7 °F 56.2 °F 29.84 in South 3.0 mph 4.0 mph 46% 0.00 in 49 W/m2
18:40 78.2 °F 56.9 °F 29.84 in South 3.0 mph 3.0 mph 48% 0.00 in 44 W/m2
18:46 77.8 °F 57.1 °F 29.84 in SSE 3.0 mph 5.0 mph 49% 0.00 in 40 W/m2
18:52 77.6 °F 58.0 °F 29.84 in South 3.0 mph 4.0 mph 51% 0.00 in 40 W/m2
18:58 76.9 °F 56.8 °F 29.84 in South 2.0 mph 4.0 mph 50% 0.00 in 37 W/m2
19:04 76.6 °F 57.1 °F 29.84 in SSE 2.0 mph 2.0 mph 51% 0.00 in 39 W/m2
19:10 76.6 °F 57.7 °F 29.84 in SE 2.0 mph 2.0 mph 52% 0.00 in 32 W/m2
19:16 76.6 °F 57.1 °F 29.84 in South 3.0 mph 4.0 mph 51% 0.00 in 30 W/m2
19:22 76.5 °F 57.0 °F 29.84 in South 2.0 mph 2.0 mph 51% 0.00 in 26 W/m2
19:28 76.3 °F 57.4 °F 29.84 in SSE 2.0 mph 6.0 mph 52% 0.00 in 23 W/m2
19:34 76.2 °F 57.3 °F 29.83 in SSE 3.0 mph 4.0 mph 52% 0.00 in 19 W/m2
19:40 76.0 °F 57.1 °F 29.84 in South 2.0 mph 2.0 mph 52% 0.00 in 18 W/m2
19:46 75.8 °F 57.4 °F 29.84 in South 2.0 mph 4.0 mph 53% 0.00 in 14 W/m2
19:52 75.2 °F 56.9 °F 29.84 in South 2.0 mph 2.0 mph 53% 0.00 in 11 W/m2
19:58 75.0 °F 57.2 °F 29.85 in SSE 1.0 mph 4.0 mph 54% 0.00 in 7 W/m2
20:04 74.8 °F 57.5 °F 29.84 in SSE 2.0 mph 3.0 mph 55% 0.00 in 0 W/m2
20:10 74.0 °F 58.3 °F 29.85 in SSE 1.0 mph 1.0 mph 58% 0.00 in 0 W/m2
20:16 73.1 °F 57.9 °F 29.85 in Calm   1.0 mph 59% 0.00 in 0 W/m2
20:22 72.4 °F 58.6 °F 29.85 in Calm     62% 0.00 in 0 W/m2
20:28 71.8 °F 58.5 °F 29.85 in Calm   1.0 mph 63% 0.00 in 0 W/m2
20:34 71.1 °F 58.7 °F 29.84 in Calm     65% 0.00 in 0 W/m2
20:40 70.4 °F 58.9 °F 29.85 in Calm     67% 0.00 in 0 W/m2
20:46 69.8 °F 59.2 °F 29.85 in Calm     69% 0.00 in 0 W/m2
20:52 69.5 °F 58.9 °F 29.85 in Calm     69% 0.00 in 0 W/m2
20:58 69.2 °F 59.4 °F 29.85 in Calm   1.0 mph 71% 0.00 in 0 W/m2
21:04 68.9 °F 59.5 °F 29.85 in Calm     72% 0.00 in 0 W/m2
21:10 68.6 °F 59.2 °F 29.85 in Calm     72% 0.00 in 0 W/m2
21:18 67.9 °F 58.9 °F 29.85 in Calm     73% 0.00 in 0 W/m2
21:24 67.5 °F 59.3 °F 29.85 in Calm     75% 0.00 in 0 W/m2
21:30 67.2 °F 59.0 °F 29.85 in Calm     75% 0.00 in 0 W/m2
21:36 67.0 °F 59.2 °F 29.85 in Calm     76% 0.00 in 0 W/m2
21:42 66.7 °F 58.9 °F 29.85 in Calm     76% 0.00 in 0 W/m2
21:48 66.5 °F 59.1 °F 29.84 in Calm     77% 0.00 in 0 W/m2
21:54 66.3 °F 59.2 °F 29.84 in Calm     78% 0.00 in 0 W/m2
22:00 66.0 °F 58.9 °F 29.84 in Calm     78% 0.00 in 0 W/m2
22:06 65.8 °F 59.1 °F 29.84 in Calm     79% 0.00 in 0 W/m2
22:12 65.6 °F 58.9 °F 29.84 in Calm     79% 0.00 in 0 W/m2
22:18 65.4 °F 58.7 °F 29.84 in Calm     79% 0.00 in 0 W/m2
22:24 65.1 °F 58.8 °F 29.84 in Calm     80% 0.00 in 0 W/m2
22:30 65.0 °F 59.0 °F 29.85 in Calm     81% 0.00 in 0 W/m2
22:36 64.8 °F 58.8 °F 29.85 in Calm     81% 0.00 in 0 W/m2
22:42 64.7 °F 58.7 °F 29.85 in Calm     81% 0.00 in 0 W/m2
22:48 64.5 °F 58.9 °F 29.85 in Calm     82% 0.00 in 0 W/m2
22:54 64.3 °F 59.0 °F 29.84 in Calm     83% 0.00 in 0 W/m2
23:00 64.2 °F 59.3 °F 29.84 in Calm     84% 0.00 in 0 W/m2
23:06 64.0 °F 59.1 °F 29.84 in Calm     84% 0.00 in 0 W/m2
23:14 63.6 °F 58.7 °F 29.84 in Calm     84% 0.00 in 0 W/m2
23:20 63.6 °F 59.0 °F 29.84 in Calm     85% 0.00 in 0 W/m2
23:26 63.5 °F 58.9 °F 29.83 in Calm   1.0 mph 85% 0.00 in 0 W/m2
23:32 63.3 °F 58.7 °F 29.83 in Calm   2.0 mph 85% 0.00 in 0 W/m2
23:38 63.3 °F 58.4 °F 29.83 in Calm   2.0 mph 84% 0.00 in 0 W/m2
23:44 63.3 °F 58.4 °F 29.83 in Calm     84% 0.00 in 0 W/m2
23:50 63.3 °F 58.4 °F 29.83 in Calm     84% 0.00 in 0 W/m2
23:56 63.3 °F 58.7 °F 29.83 in Calm     85% 0.00 in 0 W/m2
Country Meadow, Clay, NY, USA
Compliments of Weather Underground - 2 mb